Time;durP1;ratioP1;P1;durP2;ratioP2;P2;SDS_P1;SDS_P2;PMS_P1;PMS_P2;Temp;Humidity;BMP_temperature;BMP_pressure;BME280_temperature;BME280_humidity;BME280_pressure;Samples;Min_cycle;Max_cycle;Signal;HPM_P1;HPM_P2
2022/06/12 00:01:22;;;;;;;5.07;1.33;;;;;;;15.07;78.53;102162.25;5074177;28;20373;-46
2022/06/12 00:03:52;;;;;;;2.55;1.10;;;;;;;15.01;78.08;102159.03;5074150;28;20420;-48
2022/06/12 00:06:22;;;;;;;5.20;1.60;;;;;;;15.04;77.80;102153.53;5074098;28;20048;-49
2022/06/12 00:08:51;;;;;;;5.40;1.20;;;;;;;14.95;78.16;102159.41;5073906;28;20044;-49
2022/06/12 00:11:25;;;;;;;5.35;1.17;;;;;;;14.87;78.80;102159.03;5073456;28;20131;-46
2022/06/12 00:13:56;;;;;;;9.25;1.30;;;;;;;14.91;79.53;102157.06;5072436;28;20507;-48
2022/06/12 00:16:24;;;;;;;4.45;1.10;;;;;;;14.89;79.32;102157.16;5069062;28;20040;-49
2022/06/12 00:18:55;;;;;;;5.20;1.30;;;;;;;14.79;79.06;102158.66;5071843;28;20090;-48
2022/06/12 00:21:24;;;;;;;5.40;1.30;;;;;;;14.73;80.50;102151.13;5071601;28;20047;-53
2022/06/12 00:23:57;;;;;;;5.30;1.20;;;;;;;14.65;79.79;102157.72;5070034;28;20040;-52
2022/06/12 00:26:30;;;;;;;5.82;1.52;;;;;;;14.59;81.74;102158.09;5073481;28;20131;-53
2022/06/12 00:28:59;;;;;;;5.88;1.10;;;;;;;14.59;81.23;102152.78;5070709;28;20056;-51
2022/06/12 00:31:28;;;;;;;5.32;1.08;;;;;;;14.54;80.17;102146.91;5068437;28;20111;-57
2022/06/12 00:33:59;;;;;;;6.35;1.40;;;;;;;14.52;80.31;102146.19;5070052;28;20076;-53
2022/06/12 00:36:27;;;;;;;6.25;1.23;;;;;;;14.51;81.18;102141.81;5063564;28;20475;-53
2022/06/12 00:38:55;;;;;;;6.20;1.20;;;;;;;14.40;81.77;102147.78;5068994;28;20142;-58
2022/06/12 00:41:25;;;;;;;6.45;1.75;;;;;;;14.37;83.24;102148.81;5071798;28;20079;-48
2022/06/12 00:43:53;;;;;;;5.22;1.20;;;;;;;14.28;83.21;102143.22;5071993;28;20056;-55
2022/06/12 00:46:39;;;;;;;5.45;1.23;;;;;;;14.27;84.30;102142.34;5071908;28;20044;-57
2022/06/12 00:49:16;;;;;;;5.38;1.48;;;;;;;14.25;85.05;102146.03;5071840;28;20048;-56
2022/06/12 00:51:47;;;;;;;6.50;1.73;;;;;;;14.17;84.44;102146.50;5070171;28;20797;-56
2022/06/12 00:54:16;;;;;;;6.10;1.40;;;;;;;14.14;85.38;102139.59;5071131;28;20045;-57
2022/06/12 00:56:49;;;;;;;5.40;1.58;;;;;;;14.17;85.65;102139.41;5071357;28;20044;-51
2022/06/12 00:59:27;;;;;;;7.60;1.63;;;;;;;14.07;86.61;102140.06;5070843;28;20092;-52
2022/06/12 01:01:55;;;;;;;7.18;1.75;;;;;;;14.00;87.05;102143.06;5078076;28;20048;-54
2022/06/12 01:07:16;;;;;;;10.50;1.67;;;;;;;13.95;87.37;102137.19;5070970;28;20445;-56
2022/06/12 01:09:47;;;;;;;4.07;1.40;;;;;;;13.90;87.50;102136.63;5064901;28;20049;-56
2022/06/12 01:12:19;;;;;;;8.07;1.88;;;;;;;13.90;87.29;102139.25;5069245;28;20044;-55
2022/06/12 01:14:51;;;;;;;6.07;1.67;;;;;;;13.87;87.89;102134.16;5071561;28;20048;-56
2022/06/12 01:17:21;;;;;;;10.02;2.05;;;;;;;13.80;88.26;102130.19;5069444;28;20041;-56
2022/06/12 01:19:54;;;;;;;7.53;2.08;;;;;;;13.80;89.18;102131.00;5070928;28;20070;-57
2022/06/12 01:22:43;;;;;;;;;;;;;;;13.76;89.13;102131.28;5070273;28;20391;-50
2022/06/12 01:25:42;;;;;;;5.90;1.73;;;;;;;13.77;89.00;102131.22;5067609;28;19921;-56
2022/06/12 01:28:34;;;;;;;7.03;2.28;;;;;;;13.77;88.48;102128.56;5069576;28;20475;-49
2022/06/12 01:31:11;;;;;;;7.70;2.03;;;;;;;13.78;88.88;102134.69;5082556;28;20053;-48
2022/06/12 01:33:48;;;;;;;7.60;2.00;;;;;;;13.64;90.38;102138.97;5070061;28;20044;-55
2022/06/12 01:36:23;;;;;;;8.00;1.90;;;;;;;13.62;90.38;102135.59;5075285;28;20049;-55
2022/06/12 01:39:00;;;;;;;9.00;2.15;;;;;;;13.71;90.27;102144.75;5070562;28;20457;-51
2022/06/12 01:41:34;;;;;;;8.02;1.88;;;;;;;13.69;91.52;102134.28;5068219;28;20052;-52
2022/06/12 01:44:12;;;;;;;9.07;2.85;;;;;;;13.61;91.16;102133.03;5070831;28;20052;-50
2022/06/12 01:46:49;;;;;;;6.68;1.90;;;;;;;13.47;91.50;102123.22;5071218;28;20040;-52
2022/06/12 01:49:21;;;;;;;8.32;2.13;;;;;;;13.44;92.04;102123.41;5068350;28;20048;-55
2022/06/12 01:51:55;;;;;;;7.82;1.90;;;;;;;13.46;92.89;102125.03;5071216;28;20621;-56
2022/06/12 01:54:29;;;;;;;7.63;2.25;;;;;;;13.47;93.91;102133.81;5068752;28;20252;-49
2022/06/12 01:57:04;;;;;;;7.95;1.85;;;;;;;13.39;93.60;102126.34;5071181;28;20495;-50
2022/06/12 01:59:40;;;;;;;10.52;2.05;;;;;;;13.39;93.59;102128.97;5070898;28;20052;-56
2022/06/12 02:02:16;;;;;;;10.18;2.15;;;;;;;13.42;92.98;102127.94;5070497;28;20051;-57
2022/06/12 02:04:52;;;;;;;7.72;1.90;;;;;;;13.42;93.16;102135.88;5070597;28;20055;-55
2022/06/12 02:07:25;;;;;;;9.85;2.30;;;;;;;13.34;93.01;102138.91;5071134;28;20557;-56
2022/06/12 02:09:59;;;;;;;10.80;1.92;;;;;;;13.27;95.02;102134.91;5070934;28;20044;-55
2022/06/12 02:15:23;;;;;;;6.90;1.95;;;;;;;13.18;95.37;102130.97;5069565;28;20049;-56
2022/06/12 02:17:57;;;;;;;9.82;2.40;;;;;;;13.11;96.71;102127.00;5070797;28;20055;-55
2022/06/12 02:20:32;;;;;;;6.80;2.17;;;;;;;13.04;96.49;102126.47;5069138;28;20541;-55
2022/06/12 02:23:05;;;;;;;11.90;2.58;;;;;;;13.05;96.13;102124.69;5072934;28;20044;-56
2022/06/12 02:25:37;;;;;;;8.90;2.28;;;;;;;12.95;96.65;102124.34;5074743;28;20040;-57
2022/06/12 02:28:11;;;;;;;9.80;2.03;;;;;;;12.95;96.76;102124.34;5072501;28;20049;-56
2022/06/12 02:30:43;;;;;;;8.02;2.03;;;;;;;12.90;97.36;102126.38;5073222;28;20060;-49
2022/06/12 02:33:19;;;;;;;8.65;2.35;;;;;;;12.92;97.24;102120.06;5072387;28;20044;-50
2022/06/12 02:35:51;;;;;;;6.47;2.00;;;;;;;12.89;97.72;102117.59;5074441;28;20036;-49
2022/06/12 02:38:23;;;;;;;10.02;2.05;;;;;;;12.89;97.80;102120.25;5074525;28;20086;-49
2022/06/12 02:40:56;;;;;;;8.32;2.08;;;;;;;12.88;97.51;102115.91;5074814;28;20051;-48
2022/06/12 02:43:28;;;;;;;7.90;2.28;;;;;;;12.82;98.21;102119.72;5074479;28;20040;-51
2022/06/12 02:46:02;;;;;;;7.03;2.10;;;;;;;12.80;98.31;102123.38;5074562;28;20067;-48
2022/06/12 02:48:32;;;;;;;10.38;2.38;;;;;;;12.79;98.15;102119.06;5074392;28;20365;-47
2022/06/12 02:51:09;;;;;;;10.65;2.72;;;;;;;12.74;98.68;102121.94;5074327;28;20186;-51
2022/06/12 02:53:47;;;;;;;9.55;2.25;;;;;;;12.74;98.92;102118.44;5073920;28;20048;-48
2022/06/12 02:56:22;;;;;;;10.07;2.40;;;;;;;12.72;98.92;102118.53;5073919;28;20383;-47
2022/06/12 02:58:57;;;;;;;7.10;2.20;;;;;;;12.70;98.72;102115.13;5086264;28;20053;-49
2022/06/12 03:01:34;;;;;;;10.02;2.10;;;;;;;12.56;99.98;102112.38;5073357;28;20055;-50
2022/06/12 03:04:10;;;;;;;8.25;2.25;;;;;;;12.51;100.00;102110.81;5074047;28;20449;-51
2022/06/12 03:06:40;;;;;;;10.00;2.40;;;;;;;12.57;100.00;102108.78;5073933;28;20039;-51
2022/06/12 03:09:08;;;;;;;8.20;2.25;;;;;;;12.48;100.00;102102.22;5072292;28;20054;-50
2022/06/12 03:11:39;;;;;;;9.98;2.28;;;;;;;12.54;100.00;102104.53;5073022;28;20048;-53
2022/06/12 03:14:09;;;;;;;11.57;2.53;;;;;;;12.55;100.00;102108.88;5073145;28;20126;-49
2022/06/12 03:16:41;;;;;;;13.40;2.50;;;;;;;12.52;100.00;102112.53;5070837;28;20053;-49
2022/06/12 03:19:14;;;;;;;11.20;2.43;;;;;;;12.54;100.00;102115.06;5073312;28;20102;-55
2022/06/12 03:21:49;;;;;;;8.15;2.30;;;;;;;12.57;100.00;102119.34;5071568;28;20536;-56
2022/06/12 03:24:36;;;;;;;13.65;2.63;;;;;;;12.54;100.00;102120.34;5073519;28;20048;-57
2022/06/12 03:27:25;;;;;;;7.90;2.50;;;;;;;12.48;100.00;102118.91;5073614;28;20525;-51
2022/06/12 03:30:01;;;;;;;12.05;2.70;;;;;;;12.47;100.00;102119.81;5073579;28;20360;-57
2022/06/12 03:32:38;;;;;;;11.68;2.70;;;;;;;12.52;100.00;102127.50;5073792;28;20052;-56
2022/06/12 03:35:15;;;;;;;10.25;2.50;;;;;;;12.55;100.00;102124.69;5071687;28;20446;-54
2022/06/12 03:37:50;;;;;;;10.18;2.60;;;;;;;12.53;100.00;102126.59;5072688;28;20040;-57
2022/06/12 03:40:27;;;;;;;10.10;2.70;;;;;;;12.46;100.00;102120.78;5072138;28;20094;-54
2022/06/12 03:42:59;;;;;;;9.48;2.85;;;;;;;12.49;100.00;102114.50;5073162;28;20502;-57
2022/06/12 03:45:38;;;;;;;9.75;2.78;;;;;;;12.50;100.00;102114.41;5073097;28;20033;-58
2022/06/12 03:48:13;;;;;;;12.00;2.90;;;;;;;12.50;100.00;102124.09;5073072;28;20052;-57
2022/06/12 03:50:47;;;;;;;10.65;2.92;;;;;;;12.51;100.00;102120.53;5071597;28;20136;-55
2022/06/12 03:53:22;;;;;;;12.32;2.88;;;;;;;12.49;100.00;102117.13;5073124;28;20432;-51
2022/06/12 03:58:45;;;;;;;12.43;3.47;;;;;;;12.51;100.00;102124.00;5073006;28;20045;-52
2022/06/12 04:01:14;;;;;;;11.35;3.42;;;;;;;12.50;100.00;102124.09;5072688;28;20044;-51
2022/06/12 04:03:45;;;;;;;8.75;3.38;;;;;;;12.48;100.00;102118.06;5072552;28;20074;-57
2022/06/12 04:06:21;;;;;;;17.27;3.90;;;;;;;12.49;100.00;102117.13;5070831;28;20036;-49
2022/06/12 04:08:53;;;;;;;13.75;3.72;;;;;;;12.51;100.00;102115.25;5072847;28;20139;-50
2022/06/12 04:11:24;;;;;;;15.43;3.80;;;;;;;12.53;100.00;102118.66;5072469;28;20479;-48
2022/06/12 04:13:53;;;;;;;13.13;3.67;;;;;;;12.54;100.00;102125.63;5072454;28;20048;-50
2022/06/12 04:16:25;;;;;;;15.38;3.97;;;;;;;12.56;100.00;102113.22;5072418;28;20033;-50
2022/06/12 04:18:55;;;;;;;11.60;3.63;;;;;;;12.57;100.00;102122.84;5069682;28;20450;-50
2022/06/12 04:21:30;;;;;;;12.70;4.50;;;;;;;12.60;100.00;102124.47;5072633;28;20136;-53
2022/06/12 04:24:05;;;;;;;13.15;4.32;;;;;;;12.67;100.00;102131.13;5072309;28;20406;-53
2022/06/12 04:26:36;;;;;;;12.10;3.70;;;;;;;12.68;100.00;102128.41;5071957;28;20067;-51
2022/06/12 04:29:18;;;;;;;14.07;4.60;;;;;;;12.72;100.00;102134.38;5064254;28;20045;-51
2022/06/12 04:31:48;;;;;;;10.02;3.80;;;;;;;12.74;100.00;102127.22;5072016;28;20040;-46
2022/06/12 04:34:19;;;;;;;14.48;3.80;;;;;;;12.78;100.00;102120.00;5067140;28;20127;-51
2022/06/12 04:36:52;;;;;;;14.48;3.95;;;;;;;12.81;100.00;102117.19;5069177;28;20052;-54
2022/06/12 04:39:23;;;;;;;13.95;3.95;;;;;;;12.88;100.00;102122.97;5072115;28;20044;-56
2022/06/12 04:41:52;;;;;;;13.23;3.95;;;;;;;12.92;100.00;102127.16;5071869;28;20051;-57
2022/06/12 04:44:21;;;;;;;14.35;4.30;;;;;;;12.98;100.00;102126.84;5071579;28;20049;-55
2022/06/12 04:46:52;;;;;;;9.27;3.13;;;;;;;13.03;100.00;102127.41;5071919;28;20086;-55
2022/06/12 04:49:26;;;;;;;13.07;3.65;;;;;;;13.06;100.00;102123.75;5069561;28;20383;-57
2022/06/12 04:51:58;;;;;;;14.52;4.43;;;;;;;13.15;100.00;102118.78;5071783;28;20454;-57
2022/06/12 04:54:28;;;;;;;12.57;4.00;;;;;;;13.26;100.00;102127.94;5069523;28;20048;-54
2022/06/12 04:56:57;;;;;;;11.73;3.60;;;;;;;13.31;100.00;102129.38;5070078;28;20052;-56
2022/06/12 04:59:25;;;;;;;15.50;4.20;;;;;;;13.39;100.00;102134.25;5071595;28;20458;-55
2022/06/12 05:01:54;;;;;;;12.77;3.63;;;;;;;13.49;100.00;102126.66;5071626;28;20045;-55
2022/06/12 05:04:26;;;;;;;13.05;3.63;;;;;;;13.55;100.00;102122.81;5070862;28;20128;-55
2022/06/12 05:06:56;;;;;;;11.68;3.78;;;;;;;13.58;100.00;102128.78;5071786;28;20037;-56
2022/06/12 05:09:27;;;;;;;16.42;4.38;;;;;;;13.68;100.00;102118.50;5071439;28;20454;-55
2022/06/12 05:11:55;;;;;;;14.18;4.05;;;;;;;13.76;100.00;102112.78;5071474;28;20040;-55
2022/06/12 05:14:23;;;;;;;14.63;4.65;;;;;;;13.86;100.00;102116.56;5071084;28;20120;-56
2022/06/12 05:16:54;;;;;;;14.30;4.35;;;;;;;13.94;100.00;102119.63;5071371;28;20052;-58
2022/06/12 05:19:25;;;;;;;14.23;4.13;;;;;;;14.03;100.00;102119.09;5071235;28;20052;-57
2022/06/12 05:21:55;;;;;;;15.40;4.80;;;;;;;14.10;100.00;102116.91;5071182;28;20098;-49
2022/06/12 05:24:23;;;;;;;12.30;3.53;;;;;;;14.22;100.00;102123.28;5068476;28;20071;-50
2022/06/12 05:26:52;;;;;;;13.75;3.90;;;;;;;14.31;100.00;102125.34;5071188;28;20041;-55
2022/06/12 05:29:24;;;;;;;15.38;4.55;;;;;;;14.43;100.00;102125.56;5070846;28;20127;-49
2022/06/12 05:31:52;;;;;;;11.65;3.40;;;;;;;14.51;100.00;102124.13;5071700;28;20499;-47
2022/06/12 05:34:21;;;;;;;14.70;3.90;;;;;;;14.62;100.00;102131.41;5070587;28;20549;-50
2022/06/12 05:36:50;;;;;;;12.45;3.97;;;;;;;14.74;100.00;102129.84;5070966;28;20037;-57
2022/06/12 05:39:21;;;;;;;17.95;5.13;;;;;;;14.81;100.00;102125.00;5071412;28;20123;-47
2022/06/12 05:41:49;;;;;;;15.00;4.65;;;;;;;14.95;100.00;102122.31;5070850;28;20041;-49
2022/06/12 05:44:18;;;;;;;14.60;3.92;;;;;;;15.02;100.00;102121.00;5071595;28;20044;-49
2022/06/12 05:46:47;;;;;;;14.32;3.92;;;;;;;15.12;100.00;102131.88;5070999;28;20541;-52
2022/06/12 05:49:15;;;;;;;12.48;3.65;;;;;;;15.23;100.00;102125.00;5069573;28;20040;-52
2022/06/12 05:51:44;;;;;;;13.32;3.78;;;;;;;15.35;100.00;102124.22;5070863;28;20435;-54
2022/06/12 05:54:12;;;;;;;12.52;3.28;;;;;;;15.46;100.00;102131.47;5071610;28;20491;-56
2022/06/12 05:56:41;;;;;;;20.15;4.00;;;;;;;15.60;100.00;102131.41;5070974;28;20430;-58
2022/06/12 05:59:09;;;;;;;14.15;3.80;;;;;;;15.71;100.00;102128.88;5071634;28;20055;-52
2022/06/12 06:01:39;;;;;;;13.27;3.80;;;;;;;15.84;100.00;102131.63;5070314;28;20076;-50
2022/06/12 06:04:08;;;;;;;18.75;4.43;;;;;;;15.95;100.00;102132.69;5071998;28;20129;-47
2022/06/12 06:06:44;;;;;;;13.45;4.07;;;;;;;16.04;100.00;102138.22;5071944;28;20123;-46
2022/06/12 06:09:12;;;;;;;16.65;4.35;;;;;;;16.19;100.00;102144.28;5072144;28;20055;-48
2022/06/12 06:11:42;;;;;;;19.52;4.10;;;;;;;16.40;100.00;102138.44;5071629;28;20060;-56
2022/06/12 06:14:10;;;;;;;16.35;4.20;;;;;;;16.43;100.00;102127.63;5071852;28;20056;-57
2022/06/12 06:16:40;;;;;;;13.07;3.28;;;;;;;16.59;100.00;102132.69;5071523;28;22141;-56
2022/06/12 06:19:09;;;;;;;16.13;4.28;;;;;;;16.73;100.00;102129.91;5071970;28;20063;-57
2022/06/12 06:21:39;;;;;;;18.38;4.28;;;;;;;16.84;98.79;102137.13;5071205;28;20272;-49
2022/06/12 06:24:08;;;;;;;15.43;3.65;;;;;;;16.98;97.86;102136.16;5072235;28;20128;-52
2022/06/12 06:26:36;;;;;;;17.10;3.85;;;;;;;17.08;96.88;102136.34;5071558;28;20045;-50
2022/06/12 06:29:06;;;;;;;15.20;4.00;;;;;;;17.24;96.21;102133.41;5071848;28;20052;-46
2022/06/12 06:31:35;;;;;;;20.48;4.25;;;;;;;17.38;95.70;102135.94;5071480;28;20044;-51
2022/06/12 06:34:03;;;;;;;17.80;3.30;;;;;;;17.52;95.07;102136.69;5071490;28;20049;-52
2022/06/12 06:36:32;;;;;;;20.35;3.92;;;;;;;17.65;95.16;102136.63;5071571;28;20511;-48
2022/06/12 06:39:00;;;;;;;21.60;4.43;;;;;;;17.75;92.97;102148.25;5071480;28;20364;-52
2022/06/12 06:41:29;;;;;;;17.52;4.00;;;;;;;17.92;92.22;102146.22;5071359;28;20079;-59
2022/06/12 06:46:44;;;;;;;19.83;3.88;;;;;;;18.17;89.72;102140.66;5068990;28;20040;-57
2022/06/12 06:49:19;;;;;;;14.98;4.93;;;;;;;18.30;88.71;102148.56;5047937;28;20548;-57
2022/06/12 06:51:47;;;;;;;16.52;4.07;;;;;;;18.45;89.68;102143.00;5061301;28;20049;-57
2022/06/12 06:54:15;;;;;;;14.82;4.18;;;;;;;18.54;87.69;102143.16;5071039;28;20131;-58
2022/06/12 06:56:44;;;;;;;18.50;4.15;;;;;;;18.67;87.78;102145.69;5069410;28;20056;-51
2022/06/12 06:59:12;;;;;;;16.08;4.07;;;;;;;18.85;85.58;102151.34;5067011;28;20127;-52
2022/06/12 07:01:40;;;;;;;14.75;3.78;;;;;;;19.07;84.13;102152.34;5069254;28;20048;-51
2022/06/12 07:04:09;;;;;;;15.20;3.95;;;;;;;19.17;84.70;102155.09;5070960;28;20059;-49
2022/06/12 07:06:38;;;;;;;15.55;3.58;;;;;;;19.32;83.29;102155.66;5071489;28;20047;-49
2022/06/12 07:09:06;;;;;;;12.85;3.60;;;;;;;19.55;82.89;102153.78;5071921;28;20513;-57
2022/06/12 07:11:35;;;;;;;17.67;3.83;;;;;;;19.70;80.53;102155.19;5074643;28;20052;-58
2022/06/12 07:14:03;;;;;;;18.73;4.40;;;;;;;19.82;79.03;102164.00;5074686;28;20040;-58
2022/06/12 07:16:33;;;;;;;16.98;4.00;;;;;;;19.84;78.54;102161.22;5074691;28;20095;-58
2022/06/12 07:19:02;;;;;;;13.30;3.92;;;;;;;19.90;76.59;102156.19;5074731;28;20427;-58
2022/06/12 07:21:31;;;;;;;15.77;3.40;;;;;;;20.13;77.28;102171.25;5072856;28;20056;-58
2022/06/12 07:23:59;;;;;;;15.20;3.88;;;;;;;20.29;76.50;102166.28;5069867;28;20049;-58
2022/06/12 07:26:32;;;;;;;14.85;4.63;;;;;;;20.34;73.92;102161.41;5073260;28;20102;-58
2022/06/12 07:29:00;;;;;;;17.25;4.30;;;;;;;20.32;74.44;102157.16;5074402;28;20052;-47
2022/06/12 07:31:28;;;;;;;17.60;4.68;;;;;;;20.51;74.47;102164.44;5067424;28;20136;-50
2022/06/12 07:33:56;;;;;;;17.35;4.18;;;;;;;20.65;74.30;102157.88;5070831;28;20052;-58
2022/06/12 07:36:26;;;;;;;15.55;3.83;;;;;;;20.86;73.37;102161.38;5074364;28;20460;-59
2022/06/12 07:38:56;;;;;;;17.23;3.90;;;;;;;21.07;74.09;102171.97;5074210;28;20098;-58
2022/06/12 07:41:45;;;;;;;16.35;4.88;;;;;;;21.17;70.26;102163.97;5073599;28;20044;-58
2022/06/12 07:44:14;;;;;;;16.27;4.32;;;;;;;21.22;70.03;102161.72;5073950;28;20119;-48
2022/06/12 07:46:43;;;;;;;14.60;4.18;;;;;;;21.44;72.01;102163.28;5073895;28;20064;-52
2022/06/12 07:49:11;;;;;;;16.13;4.57;;;;;;;21.25;70.26;102163.28;5074112;28;20072;-58
2022/06/12 07:51:39;;;;;;;15.38;4.45;;;;;;;21.26;72.79;102159.63;5074071;28;20049;-58
2022/06/12 07:54:09;;;;;;;15.38;4.53;;;;;;;21.41;72.25;102157.41;5073912;28;20064;-48
2022/06/12 07:56:37;;;;;;;12.93;3.65;;;;;;;21.53;71.45;102166.16;5074006;28;20487;-51
2022/06/12 07:59:07;;;;;;;13.00;3.50;;;;;;;21.77;70.55;102163.91;5074173;28;20475;-49
2022/06/12 08:01:37;;;;;;;14.15;3.83;;;;;;;21.74;69.87;102158.00;5071644;28;20048;-50
2022/06/12 08:04:08;;;;;;;13.10;3.92;;;;;;;21.83;69.98;102164.31;5070225;28;20051;-49
2022/06/12 08:06:37;;;;;;;13.73;3.92;;;;;;;21.77;69.33;102163.91;5073139;28;20060;-47
2022/06/12 08:09:07;;;;;;;16.60;3.13;;;;;;;22.08;68.71;102165.56;5075019;28;20091;-57
2022/06/12 08:11:37;;;;;;;13.43;3.50;;;;;;;22.17;65.02;102163.84;5073680;28;20541;-50
2022/06/12 08:14:07;;;;;;;15.38;3.70;;;;;;;21.97;66.62;102160.38;5073525;28;20435;-53
2022/06/12 08:16:39;;;;;;;;;;;;;;;22.32;67.20;102153.50;5073623;28;20442;-57
2022/06/12 08:20:24;;;;;;;15.88;3.40;;;;;;;22.38;65.36;102148.44;5073487;28;20391;-58
2022/06/12 08:21:57;;;;;;;12.75;3.30;;;;;;;22.39;64.44;102150.13;5073482;28;20102;-58
2022/06/12 08:24:25;;;;;;;16.05;3.95;;;;;;;22.49;63.45;102157.31;5072991;28;20123;-49
2022/06/12 08:26:55;;;;;;;12.32;2.92;;;;;;;22.78;63.49;102155.34;5073126;28;20115;-58
2022/06/12 08:29:24;;;;;;;14.40;2.97;;;;;;;22.89;61.37;102153.44;5072936;28;20052;-58
2022/06/12 08:31:56;;;;;;;13.68;3.67;;;;;;;22.82;61.09;102153.19;5071831;28;20072;-58
2022/06/12 08:34:28;;;;;;;15.02;3.38;;;;;;;22.70;62.28;102157.91;5070909;28;20446;-48
2022/06/12 08:36:59;;;;;;;14.43;3.67;;;;;;;22.99;61.83;102154.22;5071308;28;20044;-52
2022/06/12 08:39:29;;;;;;;17.65;3.55;;;;;;;22.95;60.38;102150.16;5070111;28;20040;-58
2022/06/12 08:42:05;;;;;;;13.55;2.97;;;;;;;23.03;61.87;102154.75;5071426;28;20496;-58
2022/06/12 08:44:42;;;;;;;11.00;2.97;;;;;;;23.07;59.24;102143.59;5070861;28;20488;-50
2022/06/12 08:47:17;;;;;;;11.30;2.83;;;;;;;23.51;61.52;102150.09;5071015;28;20052;-60
2022/06/12 08:49:51;;;;;;;10.80;2.60;;;;;;;23.71;58.20;102143.56;5068106;28;20062;-58
2022/06/12 08:52:25;;;;;;;11.07;2.97;;;;;;;24.10;58.10;102135.13;5064992;28;20040;-52
2022/06/12 08:55:01;;;;;;;13.38;3.63;;;;;;;24.15;56.55;102140.03;5071143;28;20040;-52
2022/06/12 08:57:37;;;;;;;12.40;2.80;;;;;;;24.34;57.22;102130.03;5070480;28;20044;-57
2022/06/12 09:00:09;;;;;;;14.40;3.00;;;;;;;24.59;57.93;102136.38;5068832;28;20499;-57
2022/06/12 09:02:39;;;;;;;10.93;2.42;;;;;;;24.71;52.43;102128.91;5069899;28;20040;-58
2022/06/12 09:05:12;;;;;;;11.45;2.85;;;;;;;24.66;51.55;102131.25;5068910;28;20115;-57
2022/06/12 09:07:50;;;;;;;11.60;3.00;;;;;;;24.77;52.17;102125.56;5069908;28;20045;-59
2022/06/12 09:10:27;;;;;;;9.75;2.53;;;;;;;24.80;51.20;102115.31;5071200;28;20048;-57
2022/06/12 09:13:06;;;;;;;16.98;2.72;;;;;;;25.12;51.72;102124.47;5068429;28;20048;-56
2022/06/12 09:15:41;;;;;;;13.80;2.80;;;;;;;25.22;52.57;102116.22;5062286;28;20041;-50
2022/06/12 09:18:17;;;;;;;9.40;2.63;;;;;;;25.34;53.14;102113.25;5070608;28;20039;-57
2022/06/12 09:20:50;;;;;;;10.00;2.50;;;;;;;24.91;51.62;102108.78;5068719;28;20044;-58
2022/06/12 09:23:31;;;;;;;10.82;2.60;;;;;;;25.35;49.81;102107.72;5065860;28;20063;-58
2022/06/12 09:26:11;;;;;;;9.07;2.70;;;;;;;25.56;49.70;102106.38;5066682;28;20521;-58
2022/06/12 09:28:47;;;;;;;8.07;1.90;;;;;;;25.64;46.46;102109.03;5072321;28;20127;-57
2022/06/12 09:31:21;;;;;;;8.20;2.10;;;;;;;25.35;46.21;102107.72;5071690;28;20048;-57
2022/06/12 09:33:59;;;;;;;7.25;1.88;;;;;;;25.18;44.14;102103.28;5061656;28;20131;-57
2022/06/12 09:36:44;;;;;;;8.90;2.00;;;;;;;25.23;44.17;102101.78;5072337;28;20056;-57
2022/06/12 09:39:28;;;;;;;7.60;1.48;;;;;;;25.62;43.60;102117.31;5072103;28;20054;-57
2022/06/12 09:42:04;;;;;;;8.07;1.70;;;;;;;25.89;44.71;102111.72;5072279;28;20447;-51
2022/06/12 09:44:42;;;;;;;9.00;1.90;;;;;;;25.97;44.11;102111.69;5071841;28;20117;-57
2022/06/12 09:47:13;;;;;;;10.50;2.17;;;;;;;26.04;41.61;102104.66;5071496;28;20041;-57
2022/06/12 09:50:07;;;;;;;9.30;2.40;;;;;;;26.18;42.73;102104.94;5068569;28;20078;-58
2022/06/12 09:52:55;;;;;;;10.38;2.72;;;;;;;26.17;42.20;102098.72;5070616;28;20055;-58
2022/06/12 09:55:31;;;;;;;9.02;2.17;;;;;;;26.32;44.14;102098.81;5067281;28;20457;-58
2022/06/12 09:58:08;;;;;;;8.23;2.33;;;;;;;26.17;43.70;102104.09;5068616;28;20430;-56
2022/06/12 10:00:42;;;;;;;9.65;2.38;;;;;;;26.26;43.66;102105.75;5070598;28;20068;-58
2022/06/12 10:03:17;;;;;;;9.60;2.67;;;;;;;26.04;44.44;102099.28;5070770;28;20041;-58
2022/06/12 10:05:50;;;;;;;10.98;2.63;;;;;;;26.11;44.40;102100.25;5070530;28;20040;-58
2022/06/12 10:08:28;;;;;;;10.15;2.17;;;;;;;25.89;43.67;102109.00;5070902;28;20415;-58
2022/06/12 10:11:00;;;;;;;9.90;2.50;;;;;;;26.10;44.29;102097.72;5069081;28;20048;-58
2022/06/12 10:13:35;;;;;;;10.35;2.13;;;;;;;26.43;45.17;102100.31;5067194;28;20048;-58
2022/06/12 10:16:19;;;;;;;9.07;2.03;;;;;;;26.85;44.88;102100.97;5066014;28;20510;-58
2022/06/12 10:19:14;;;;;;;11.15;2.22;;;;;;;26.93;42.13;102103.63;5070144;28;20040;-57
2022/06/12 10:21:46;;;;;;;10.45;2.28;;;;;;;26.90;42.39;102107.53;5069854;28;20040;-58
2022/06/12 10:24:14;;;;;;;9.55;2.30;;;;;;;27.26;45.07;102112.31;5070364;28;20046;-57
2022/06/12 10:26:55;;;;;;;10.05;2.70;;;;;;;27.38;43.92;102110.06;5070109;28;20115;-57
2022/06/12 10:29:25;;;;;;;9.68;2.45;;;;;;;27.22;41.93;102104.78;5069161;28;20056;-57
2022/06/12 10:32:02;;;;;;;7.85;2.17;;;;;;;27.01;44.32;102103.56;5068509;28;20472;-51
2022/06/12 10:34:32;;;;;;;10.55;2.47;;;;;;;27.06;43.22;102098.44;5063346;28;20702;-57
2022/06/12 10:37:11;;;;;;;8.38;2.78;;;;;;;27.41;42.35;102101.59;5064934;28;20052;-57
2022/06/12 10:39:40;;;;;;;10.02;2.08;;;;;;;27.35;42.87;102096.91;5060326;28;20446;-57
2022/06/12 10:42:31;;;;;;;7.97;1.92;;;;;;;27.52;42.51;102086.81;5064157;28;20093;-55
2022/06/12 10:45:01;;;;;;;9.38;2.70;;;;;;;27.27;42.39;102089.72;5070529;28;20059;-51
2022/06/12 10:47:31;;;;;;;8.57;2.25;;;;;;;27.40;42.75;102086.41;5063413;28;20106;-57
2022/06/12 10:50:20;;;;;;;8.10;2.22;;;;;;;27.46;42.99;102083.00;5065808;28;20045;-57
2022/06/12 10:52:54;;;;;;;9.75;2.40;;;;;;;27.42;39.95;102089.78;5060423;28;20045;-56
2022/06/12 10:55:36;;;;;;;11.80;2.40;;;;;;;27.27;41.39;102084.31;5061126;28;20078;-52
2022/06/12 10:58:19;;;;;;;12.38;2.60;;;;;;;27.32;42.99;102084.59;5071396;28;20127;-55
2022/06/12 11:00:51;;;;;;;10.90;2.53;;;;;;;27.81;41.49;102071.69;5064315;28;20558;-58
2022/06/12 11:03:28;;;;;;;8.23;2.35;;;;;;;27.79;41.82;102082.69;5059493;28;20057;-57
2022/06/12 11:06:07;;;;;;;8.80;2.05;;;;;;;27.81;41.33;102077.94;5061917;28;20045;-49
2022/06/12 11:09:05;;;;;;;11.07;2.33;;;;;;;28.06;42.63;102074.13;5071868;28;20474;-54
2022/06/12 11:11:51;;;;;;;8.77;2.38;;;;;;;27.86;41.71;102088.19;5045548;28;20053;-58
2022/06/12 11:14:34;;;;;;;9.88;2.38;;;;;;;27.98;39.82;102075.06;5069710;28;20090;-49
2022/06/12 11:17:14;;;;;;;7.15;2.22;;;;;;;28.30;39.52;102078.41;5073901;28;20097;-51
2022/06/12 11:20:04;;;;;;;12.20;2.60;;;;;;;28.33;41.66;102078.88;5087093;28;20117;-52
2022/06/12 11:22:40;;;;;;;10.68;2.30;;;;;;;28.77;38.49;102074.44;5071767;28;20048;-51
2022/06/12 11:25:26;;;;;;;7.85;2.28;;;;;;;29.11;39.02;102067.47;5073616;28;20055;-57
2022/06/12 11:28:10;;;;;;;10.85;2.20;;;;;;;29.29;36.94;102072.47;5083283;28;20048;-50
2022/06/12 11:30:47;;;;;;;8.98;2.55;;;;;;;28.83;38.02;102073.66;5078623;28;20044;-51
2022/06/12 11:33:48;;;;;;;9.85;2.47;;;;;;;28.51;37.37;102074.94;5078072;28;20044;-52
2022/06/12 11:36:26;;;;;;;10.07;2.63;;;;;;;28.40;38.16;102068.16;5086906;28;20052;-52
2022/06/12 11:39:27;;;;;;;9.25;2.33;;;;;;;28.49;40.83;102064.28;5080984;28;20048;-58
2022/06/12 11:42:12;;;;;;;7.05;1.85;;;;;;;28.15;38.25;102071.19;5090693;28;20130;-57
2022/06/12 11:44:57;;;;;;;8.48;2.10;;;;;;;27.78;39.25;102070.19;5073047;28;20045;-56
2022/06/12 11:47:40;;;;;;;9.20;2.28;;;;;;;27.93;40.43;102061.25;5073262;28;20102;-58
2022/06/12 11:50:21;;;;;;;9.85;2.20;;;;;;;27.83;39.76;102067.78;5080538;28;20050;-58
2022/06/12 11:53:01;;;;;;;8.55;2.15;;;;;;;27.45;38.58;102059.69;5078889;28;20041;-58
2022/06/12 11:55:37;;;;;;;9.30;2.17;;;;;;;27.43;38.75;102053.66;5079701;28;20052;-49
2022/06/12 11:58:23;;;;;;;8.10;2.35;;;;;;;27.40;39.68;102064.81;5083162;28;20506;-52
2022/06/12 12:01:01;;;;;;;8.15;1.90;;;;;;;27.08;38.07;102057.81;5082871;28;20121;-48